sensor_id;sensor_type;location;lat;lon;timestamp;pressure;altitude;pressure_sealevel;temperature;humidity
80627;BME280;69982;51.758;5.784;2023-06-19T00:01:36;100742.77;;;22.61;51.04
80627;BME280;69982;51.758;5.784;2023-06-19T00:04:03;100747.27;;;22.59;51.31
80627;BME280;69982;51.758;5.784;2023-06-19T00:06:29;100741.09;;;22.57;51.38
80627;BME280;69982;51.758;5.784;2023-06-19T00:08:55;100739.63;;;22.56;51.58
80627;BME280;69982;51.758;5.784;2023-06-19T00:11:22;100745.40;;;22.54;51.72
80627;BME280;69982;51.758;5.784;2023-06-19T00:13:49;100757.23;;;22.53;51.82
80627;BME280;69982;51.758;5.784;2023-06-19T00:16:16;100762.31;;;22.52;52.00
80627;BME280;69982;51.758;5.784;2023-06-19T00:18:43;100767.05;;;22.52;51.89
80627;BME280;69982;51.758;5.784;2023-06-19T00:21:10;100767.33;;;22.49;52.01
80627;BME280;69982;51.758;5.784;2023-06-19T00:23:37;100775.88;;;22.47;52.09
80627;BME280;69982;51.758;5.784;2023-06-19T00:26:04;100778.35;;;22.47;52.37
80627;BME280;69982;51.758;5.784;2023-06-19T00:28:31;100778.25;;;22.48;52.44
80627;BME280;69982;51.758;5.784;2023-06-19T00:30:58;100783.00;;;22.47;52.25
80627;BME280;69982;51.758;5.784;2023-06-19T00:33:24;100786.65;;;22.47;52.06
80627;BME280;69982;51.758;5.784;2023-06-19T00:35:51;100788.23;;;22.47;52.36
80627;BME280;69982;51.758;5.784;2023-06-19T00:38:18;100795.89;;;22.49;52.19
80627;BME280;69982;51.758;5.784;2023-06-19T00:40:44;100799.91;;;22.48;52.38
80627;BME280;69982;51.758;5.784;2023-06-19T00:43:11;100801.23;;;22.50;52.30
80627;BME280;69982;51.758;5.784;2023-06-19T00:45:37;100801.39;;;22.50;52.37
80627;BME280;69982;51.758;5.784;2023-06-19T00:48:04;100805.11;;;22.53;52.30
80627;BME280;69982;51.758;5.784;2023-06-19T00:50:31;100808.23;;;22.54;52.32
80627;BME280;69982;51.758;5.784;2023-06-19T00:52:59;100818.91;;;22.57;52.27
80627;BME280;69982;51.758;5.784;2023-06-19T00:55:28;100822.84;;;22.57;52.27
80627;BME280;69982;51.758;5.784;2023-06-19T00:57:56;100822.48;;;22.58;52.35
80627;BME280;69982;51.758;5.784;2023-06-19T01:00:23;100816.41;;;22.59;52.40
80627;BME280;69982;51.758;5.784;2023-06-19T01:02:49;100819.65;;;22.60;52.13
80627;BME280;69982;51.758;5.784;2023-06-19T01:05:16;100817.50;;;22.61;52.36
80627;BME280;69982;51.758;5.784;2023-06-19T01:07:56;100818.06;;;22.61;52.35
80627;BME280;69982;51.758;5.784;2023-06-19T01:10:28;100826.70;;;22.61;52.17
80627;BME280;69982;51.758;5.784;2023-06-19T01:13:01;100824.50;;;22.57;52.38
80627;BME280;69982;51.758;5.784;2023-06-19T01:15:28;100830.52;;;22.58;52.39
80627;BME280;69982;51.758;5.784;2023-06-19T01:17:57;100829.91;;;22.56;52.21
80627;BME280;69982;51.758;5.784;2023-06-19T01:20:25;100833.03;;;22.54;52.31
80627;BME280;69982;51.758;5.784;2023-06-19T01:22:51;100837.56;;;22.51;52.39
80627;BME280;69982;51.758;5.784;2023-06-19T01:25:23;100837.48;;;22.47;52.59
80627;BME280;69982;51.758;5.784;2023-06-19T01:27:51;100835.23;;;22.44;52.44
80627;BME280;69982;51.758;5.784;2023-06-19T01:30:17;100830.98;;;22.42;52.39
80627;BME280;69982;51.758;5.784;2023-06-19T01:33:23;100837.56;;;22.39;52.50
80627;BME280;69982;51.758;5.784;2023-06-19T01:35:52;100831.30;;;22.33;52.83
80627;BME280;69982;51.758;5.784;2023-06-19T01:38:22;100827.03;;;22.25;52.89
80627;BME280;69982;51.758;5.784;2023-06-19T01:40:55;100836.25;;;22.22;53.09
80627;BME280;69982;51.758;5.784;2023-06-19T01:43:23;100836.27;;;22.15;53.61
80627;BME280;69982;51.758;5.784;2023-06-19T01:45:51;100839.54;;;22.08;53.63
80627;BME280;69982;51.758;5.784;2023-06-19T01:48:17;100838.60;;;22.04;53.85
80627;BME280;69982;51.758;5.784;2023-06-19T01:50:48;100841.41;;;21.97;54.03
80627;BME280;69982;51.758;5.784;2023-06-19T01:53:15;100840.64;;;21.90;54.20
80627;BME280;69982;51.758;5.784;2023-06-19T01:55:42;100847.33;;;21.88;54.41
80627;BME280;69982;51.758;5.784;2023-06-19T01:58:09;100851.24;;;21.83;54.73
80627;BME280;69982;51.758;5.784;2023-06-19T02:00:36;100847.09;;;21.75;54.96
80627;BME280;69982;51.758;5.784;2023-06-19T02:03:04;100850.30;;;21.71;55.38
80627;BME280;69982;51.758;5.784;2023-06-19T02:05:31;100856.62;;;21.65;55.62
80627;BME280;69982;51.758;5.784;2023-06-19T02:07:58;100860.79;;;21.57;55.91
80627;BME280;69982;51.758;5.784;2023-06-19T02:10:24;100868.88;;;21.54;56.32
80627;BME280;69982;51.758;5.784;2023-06-19T02:12:53;100866.63;;;21.48;56.35
80627;BME280;69982;51.758;5.784;2023-06-19T02:15:20;100870.52;;;21.41;56.77
80627;BME280;69982;51.758;5.784;2023-06-19T02:17:46;100871.77;;;21.38;56.97
80627;BME280;69982;51.758;5.784;2023-06-19T02:20:12;100879.84;;;21.31;57.33
80627;BME280;69982;51.758;5.784;2023-06-19T02:22:39;100882.79;;;21.26;57.45
80627;BME280;69982;51.758;5.784;2023-06-19T02:25:06;100881.77;;;21.20;57.53
80627;BME280;69982;51.758;5.784;2023-06-19T02:27:33;100881.60;;;21.18;57.77
80627;BME280;69982;51.758;5.784;2023-06-19T02:29:59;100888.37;;;21.17;58.16
80627;BME280;69982;51.758;5.784;2023-06-19T02:32:25;100890.50;;;21.14;58.47
80627;BME280;69982;51.758;5.784;2023-06-19T02:34:52;100893.11;;;21.09;58.41
80627;BME280;69982;51.758;5.784;2023-06-19T02:37:18;100894.48;;;21.02;58.34
80627;BME280;69982;51.758;5.784;2023-06-19T02:39:45;100900.05;;;21.04;58.50
80627;BME280;69982;51.758;5.784;2023-06-19T02:42:12;100903.38;;;21.01;58.78
80627;BME280;69982;51.758;5.784;2023-06-19T02:44:38;100905.35;;;20.96;59.14
80627;BME280;69982;51.758;5.784;2023-06-19T02:47:04;100905.82;;;20.90;59.63
80627;BME280;69982;51.758;5.784;2023-06-19T02:49:31;100914.20;;;20.85;59.82
80627;BME280;69982;51.758;5.784;2023-06-19T02:51:57;100919.85;;;20.80;60.24
80627;BME280;69982;51.758;5.784;2023-06-19T02:54:23;100922.67;;;20.76;60.24
80627;BME280;69982;51.758;5.784;2023-06-19T02:56:50;100920.94;;;20.75;60.59
80627;BME280;69982;51.758;5.784;2023-06-19T02:59:16;100920.74;;;20.74;60.96
80627;BME280;69982;51.758;5.784;2023-06-19T03:01:43;100931.84;;;20.72;61.21
80627;BME280;69982;51.758;5.784;2023-06-19T03:04:11;100934.70;;;20.72;61.05
80627;BME280;69982;51.758;5.784;2023-06-19T03:06:37;100937.88;;;20.71;61.37
80627;BME280;69982;51.758;5.784;2023-06-19T03:09:06;100923.44;;;20.68;61.19
80627;BME280;69982;51.758;5.784;2023-06-19T03:11:39;100924.29;;;20.65;61.19
80627;BME280;69982;51.758;5.784;2023-06-19T03:14:06;100919.13;;;20.66;60.88
80627;BME280;69982;51.758;5.784;2023-06-19T03:16:34;100919.42;;;20.70;61.05
80627;BME280;69982;51.758;5.784;2023-06-19T03:19:01;100922.30;;;20.71;60.96
80627;BME280;69982;51.758;5.784;2023-06-19T03:21:27;100933.41;;;20.73;61.23
80627;BME280;69982;51.758;5.784;2023-06-19T03:23:53;100925.16;;;20.70;61.21
80627;BME280;69982;51.758;5.784;2023-06-19T03:26:21;100931.06;;;20.70;61.28
80627;BME280;69982;51.758;5.784;2023-06-19T03:28:47;100929.22;;;20.67;61.21
80627;BME280;69982;51.758;5.784;2023-06-19T03:31:14;100927.14;;;20.64;61.34
80627;BME280;69982;51.758;5.784;2023-06-19T03:33:41;100929.81;;;20.60;61.45
80627;BME280;69982;51.758;5.784;2023-06-19T03:36:07;100933.19;;;20.54;61.80
80627;BME280;69982;51.758;5.784;2023-06-19T03:38:34;100935.55;;;20.49;62.01
80627;BME280;69982;51.758;5.784;2023-06-19T03:41:01;100936.39;;;20.46;61.94
80627;BME280;69982;51.758;5.784;2023-06-19T03:43:27;100936.00;;;20.42;62.18
80627;BME280;69982;51.758;5.784;2023-06-19T03:45:53;100941.34;;;20.42;62.14
80627;BME280;69982;51.758;5.784;2023-06-19T03:48:20;100939.36;;;20.42;62.20
80627;BME280;69982;51.758;5.784;2023-06-19T03:50:48;100941.30;;;20.39;62.47
80627;BME280;69982;51.758;5.784;2023-06-19T03:53:14;100948.08;;;20.39;62.72
80627;BME280;69982;51.758;5.784;2023-06-19T03:55:43;100953.73;;;20.35;62.81
80627;BME280;69982;51.758;5.784;2023-06-19T03:58:11;100957.76;;;20.32;63.03
80627;BME280;69982;51.758;5.784;2023-06-19T04:00:37;100962.25;;;20.32;63.08
80627;BME280;69982;51.758;5.784;2023-06-19T04:03:03;100958.60;;;20.32;63.22
80627;BME280;69982;51.758;5.784;2023-06-19T04:05:30;100960.58;;;20.34;63.06
80627;BME280;69982;51.758;5.784;2023-06-19T04:07:56;100970.11;;;20.36;63.15
80627;BME280;69982;51.758;5.784;2023-06-19T04:10:22;100973.27;;;20.37;63.32
80627;BME280;69982;51.758;5.784;2023-06-19T04:12:49;100974.02;;;20.36;63.55
80627;BME280;69982;51.758;5.784;2023-06-19T04:15:15;100977.55;;;20.34;63.50
80627;BME280;69982;51.758;5.784;2023-06-19T04:17:41;100978.81;;;20.35;63.65
80627;BME280;69982;51.758;5.784;2023-06-19T04:20:08;100977.20;;;20.34;63.95
80627;BME280;69982;51.758;5.784;2023-06-19T04:22:39;100982.81;;;20.34;63.77
80627;BME280;69982;51.758;5.784;2023-06-19T04:25:07;100986.27;;;20.35;63.89
80627;BME280;69982;51.758;5.784;2023-06-19T04:27:34;100988.48;;;20.35;64.03
80627;BME280;69982;51.758;5.784;2023-06-19T04:30:02;100986.41;;;20.34;63.87
80627;BME280;69982;51.758;5.784;2023-06-19T04:32:30;100987.91;;;20.33;64.15
80627;BME280;69982;51.758;5.784;2023-06-19T04:34:56;100988.92;;;20.29;64.43
80627;BME280;69982;51.758;5.784;2023-06-19T04:37:24;100989.29;;;20.26;64.39
80627;BME280;69982;51.758;5.784;2023-06-19T04:39:51;100989.94;;;20.25;64.65
80627;BME280;69982;51.758;5.784;2023-06-19T04:42:17;100990.84;;;20.28;64.72
80627;BME280;69982;51.758;5.784;2023-06-19T04:44:46;100997.96;;;20.28;65.22
80627;BME280;69982;51.758;5.784;2023-06-19T04:47:13;101001.89;;;20.27;65.27
80627;BME280;69982;51.758;5.784;2023-06-19T04:49:40;100998.21;;;20.24;65.49
80627;BME280;69982;51.758;5.784;2023-06-19T04:52:06;101003.19;;;20.23;65.55
80627;BME280;69982;51.758;5.784;2023-06-19T04:54:33;101009.02;;;20.22;65.69
80627;BME280;69982;51.758;5.784;2023-06-19T04:56:59;101014.56;;;20.23;65.57
80627;BME280;69982;51.758;5.784;2023-06-19T04:59:25;101012.20;;;20.25;65.70
80627;BME280;69982;51.758;5.784;2023-06-19T05:01:52;101014.27;;;20.27;65.80
80627;BME280;69982;51.758;5.784;2023-06-19T05:04:21;101013.61;;;20.29;65.96
80627;BME280;69982;51.758;5.784;2023-06-19T05:06:49;101011.04;;;20.28;66.17
80627;BME280;69982;51.758;5.784;2023-06-19T05:09:15;101024.91;;;20.31;66.17
80627;BME280;69982;51.758;5.784;2023-06-19T05:11:42;101021.43;;;20.32;66.02
80627;BME280;69982;51.758;5.784;2023-06-19T05:14:10;101022.46;;;20.37;66.14
80627;BME280;69982;51.758;5.784;2023-06-19T05:16:37;101024.20;;;20.39;66.45
80627;BME280;69982;51.758;5.784;2023-06-19T05:19:03;101023.92;;;20.42;66.08
80627;BME280;69982;51.758;5.784;2023-06-19T05:21:31;101024.61;;;20.45;66.39
80627;BME280;69982;51.758;5.784;2023-06-19T05:23:57;101021.20;;;20.43;66.51
80627;BME280;69982;51.758;5.784;2023-06-19T05:26:24;101023.74;;;20.43;66.50
80627;BME280;69982;51.758;5.784;2023-06-19T05:28:52;101027.45;;;20.47;66.44
80627;BME280;69982;51.758;5.784;2023-06-19T05:31:19;101025.84;;;20.50;66.65
80627;BME280;69982;51.758;5.784;2023-06-19T05:33:45;101026.93;;;20.51;66.44
80627;BME280;69982;51.758;5.784;2023-06-19T05:36:12;101024.54;;;20.52;66.48
80627;BME280;69982;51.758;5.784;2023-06-19T05:38:38;101026.67;;;20.57;66.31
80627;BME280;69982;51.758;5.784;2023-06-19T05:41:05;101028.63;;;20.61;66.33
80627;BME280;69982;51.758;5.784;2023-06-19T05:43:33;101031.18;;;20.63;66.33
80627;BME280;69982;51.758;5.784;2023-06-19T05:46:00;101034.68;;;20.66;66.58
80627;BME280;69982;51.758;5.784;2023-06-19T05:48:28;101042.68;;;20.69;66.48
80627;BME280;69982;51.758;5.784;2023-06-19T05:50:54;101043.80;;;20.72;66.38
80627;BME280;69982;51.758;5.784;2023-06-19T05:53:20;101047.09;;;20.74;66.52
80627;BME280;69982;51.758;5.784;2023-06-19T05:55:48;101049.80;;;20.75;66.56
80627;BME280;69982;51.758;5.784;2023-06-19T05:58:14;101051.50;;;20.74;66.50
80627;BME280;69982;51.758;5.784;2023-06-19T06:00:40;101050.03;;;20.73;66.46
80627;BME280;69982;51.758;5.784;2023-06-19T06:03:07;101052.23;;;20.74;66.57
80627;BME280;69982;51.758;5.784;2023-06-19T06:05:33;101053.36;;;20.74;66.62
80627;BME280;69982;51.758;5.784;2023-06-19T06:08:02;101053.70;;;20.76;66.58
80627;BME280;69982;51.758;5.784;2023-06-19T06:10:29;101059.81;;;20.75;66.64
80627;BME280;69982;51.758;5.784;2023-06-19T06:12:55;101057.52;;;20.72;66.56
80627;BME280;69982;51.758;5.784;2023-06-19T06:15:21;101062.33;;;20.75;66.49
80627;BME280;69982;51.758;5.784;2023-06-19T06:17:47;101064.30;;;20.72;66.65
80627;BME280;69982;51.758;5.784;2023-06-19T06:20:14;101070.40;;;20.74;66.43
80627;BME280;69982;51.758;5.784;2023-06-19T06:22:41;101074.55;;;20.75;66.43
80627;BME280;69982;51.758;5.784;2023-06-19T06:25:09;101078.33;;;20.79;66.53
80627;BME280;69982;51.758;5.784;2023-06-19T06:27:39;101076.70;;;20.79;66.45
80627;BME280;69982;51.758;5.784;2023-06-19T06:30:06;101084.19;;;20.84;66.58
80627;BME280;69982;51.758;5.784;2023-06-19T06:32:33;101082.15;;;20.84;66.52
80627;BME280;69982;51.758;5.784;2023-06-19T06:35:00;101084.98;;;20.85;66.23
80627;BME280;69982;51.758;5.784;2023-06-19T06:37:26;101088.42;;;20.85;66.16
80627;BME280;69982;51.758;5.784;2023-06-19T06:39:52;101087.46;;;20.88;66.24
80627;BME280;69982;51.758;5.784;2023-06-19T06:42:19;101091.86;;;20.91;66.35
80627;BME280;69982;51.758;5.784;2023-06-19T06:44:46;101093.16;;;20.99;66.31
80627;BME280;69982;51.758;5.784;2023-06-19T06:47:12;101095.66;;;21.05;66.17
80627;BME280;69982;51.758;5.784;2023-06-19T06:49:38;101099.86;;;21.12;65.88
80627;BME280;69982;51.758;5.784;2023-06-19T06:52:05;101104.29;;;21.16;65.37
80627;BME280;69982;51.758;5.784;2023-06-19T06:54:31;101098.84;;;21.16;64.65
80627;BME280;69982;51.758;5.784;2023-06-19T06:56:58;101112.73;;;21.16;64.16
80627;BME280;69982;51.758;5.784;2023-06-19T06:59:28;101113.84;;;21.16;64.20
80627;BME280;69982;51.758;5.784;2023-06-19T07:01:58;101119.31;;;21.18;63.95
80627;BME280;69982;51.758;5.784;2023-06-19T07:04:24;101124.88;;;21.21;63.56
80627;BME280;69982;51.758;5.784;2023-06-19T07:06:50;101129.86;;;21.27;63.46
80627;BME280;69982;51.758;5.784;2023-06-19T07:09:17;101125.05;;;21.36;63.42
80627;BME280;69982;51.758;5.784;2023-06-19T07:11:44;101128.60;;;21.44;62.45
80627;BME280;69982;51.758;5.784;2023-06-19T07:14:11;101127.61;;;21.52;62.02
80627;BME280;69982;51.758;5.784;2023-06-19T07:16:37;101134.23;;;21.60;61.56
80627;BME280;69982;51.758;5.784;2023-06-19T07:19:03;101128.05;;;21.65;61.16
80627;BME280;69982;51.758;5.784;2023-06-19T07:21:30;101136.46;;;21.75;61.11
80627;BME280;69982;51.758;5.784;2023-06-19T07:23:57;101138.48;;;21.79;61.14
80627;BME280;69982;51.758;5.784;2023-06-19T07:26:23;101146.08;;;21.84;60.95
80627;BME280;69982;51.758;5.784;2023-06-19T07:28:50;101145.88;;;21.87;60.63
80627;BME280;69982;51.758;5.784;2023-06-19T07:31:16;101146.11;;;21.89;60.25
80627;BME280;69982;51.758;5.784;2023-06-19T07:33:42;101142.86;;;21.87;59.75
80627;BME280;69982;51.758;5.784;2023-06-19T07:36:09;101145.20;;;21.86;59.51
80627;BME280;69982;51.758;5.784;2023-06-19T07:38:40;101145.61;;;21.88;59.43
80627;BME280;69982;51.758;5.784;2023-06-19T07:41:07;101150.79;;;21.92;59.29
80627;BME280;69982;51.758;5.784;2023-06-19T07:43:36;101154.22;;;21.96;59.15
80627;BME280;69982;51.758;5.784;2023-06-19T07:46:03;101157.61;;;21.94;58.73
80627;BME280;69982;51.758;5.784;2023-06-19T07:48:29;101162.83;;;21.95;59.00
80627;BME280;69982;51.758;5.784;2023-06-19T07:50:56;101167.41;;;22.04;59.49
80627;BME280;69982;51.758;5.784;2023-06-19T07:53:22;101171.20;;;22.13;59.07
80627;BME280;69982;51.758;5.784;2023-06-19T07:55:49;101175.93;;;22.22;58.99
80627;BME280;69982;51.758;5.784;2023-06-19T07:58:15;101173.28;;;22.28;58.30
80627;BME280;69982;51.758;5.784;2023-06-19T08:00:44;101175.23;;;22.35;57.35
80627;BME280;69982;51.758;5.784;2023-06-19T08:03:11;101175.17;;;22.36;57.58
80627;BME280;69982;51.758;5.784;2023-06-19T08:05:37;101177.88;;;22.40;57.48
80627;BME280;69982;51.758;5.784;2023-06-19T08:08:04;101180.98;;;22.43;57.74
80627;BME280;69982;51.758;5.784;2023-06-19T08:10:30;101183.73;;;22.48;57.85
80627;BME280;69982;51.758;5.784;2023-06-19T08:12:56;101182.92;;;22.55;57.60
80627;BME280;69982;51.758;5.784;2023-06-19T08:15:23;101185.42;;;22.62;57.41
80627;BME280;69982;51.758;5.784;2023-06-19T08:17:49;101180.64;;;22.68;57.21
80627;BME280;69982;51.758;5.784;2023-06-19T08:20:15;101176.82;;;22.72;56.59
80627;BME280;69982;51.758;5.784;2023-06-19T08:22:42;101182.22;;;22.75;56.62
80627;BME280;69982;51.758;5.784;2023-06-19T08:25:08;101184.60;;;22.76;56.38
80627;BME280;69982;51.758;5.784;2023-06-19T08:27:34;101186.41;;;22.77;56.59
80627;BME280;69982;51.758;5.784;2023-06-19T08:30:01;101191.41;;;22.83;57.00
80627;BME280;69982;51.758;5.784;2023-06-19T08:32:27;101187.93;;;22.87;56.07
80627;BME280;69982;51.758;5.784;2023-06-19T08:34:54;101191.91;;;22.94;55.63
80627;BME280;69982;51.758;5.784;2023-06-19T08:37:20;101196.59;;;22.99;55.33
80627;BME280;69982;51.758;5.784;2023-06-19T08:39:46;101195.00;;;23.07;55.63
80627;BME280;69982;51.758;5.784;2023-06-19T08:42:12;101197.46;;;23.19;55.70
80627;BME280;69982;51.758;5.784;2023-06-19T08:44:39;101196.84;;;23.33;55.51
80627;BME280;69982;51.758;5.784;2023-06-19T08:47:05;101184.81;;;23.40;54.88
80627;BME280;69982;51.758;5.784;2023-06-19T08:49:34;101185.95;;;23.49;55.02
80627;BME280;69982;51.758;5.784;2023-06-19T08:52:05;101188.00;;;23.57;54.83
80627;BME280;69982;51.758;5.784;2023-06-19T08:54:32;101194.80;;;23.61;54.32
80627;BME280;69982;51.758;5.784;2023-06-19T08:57:02;101198.16;;;23.63;53.78
80627;BME280;69982;51.758;5.784;2023-06-19T08:59:33;101200.16;;;23.63;53.22
80627;BME280;69982;51.758;5.784;2023-06-19T09:01:59;101205.42;;;23.63;53.03
80627;BME280;69982;51.758;5.784;2023-06-19T09:04:27;101211.52;;;23.60;52.60
80627;BME280;69982;51.758;5.784;2023-06-19T09:07:01;101208.88;;;23.58;52.21
80627;BME280;69982;51.758;5.784;2023-06-19T09:09:31;101214.03;;;23.63;52.86
80627;BME280;69982;51.758;5.784;2023-06-19T09:12:01;101210.55;;;23.71;52.66
80627;BME280;69982;51.758;5.784;2023-06-19T09:14:46;101219.88;;;23.76;52.68
80627;BME280;69982;51.758;5.784;2023-06-19T09:17:17;101210.35;;;23.82;52.62
80627;BME280;69982;51.758;5.784;2023-06-19T09:19:51;101210.59;;;23.88;52.51
80627;BME280;69982;51.758;5.784;2023-06-19T09:22:21;101217.23;;;23.90;52.14
80627;BME280;69982;51.758;5.784;2023-06-19T09:24:48;101232.38;;;23.90;52.04
80627;BME280;69982;51.758;5.784;2023-06-19T09:27:17;101237.32;;;23.93;52.04
80627;BME280;69982;51.758;5.784;2023-06-19T09:29:49;101229.36;;;23.92;51.18
80627;BME280;69982;51.758;5.784;2023-06-19T09:32:23;101231.50;;;23.94;51.18
80627;BME280;69982;51.758;5.784;2023-06-19T09:34:52;101233.84;;;24.02;51.12
80627;BME280;69982;51.758;5.784;2023-06-19T09:37:29;101236.11;;;24.04;50.42
80627;BME280;69982;51.758;5.784;2023-06-19T09:39:58;101228.92;;;24.09;50.52
80627;BME280;69982;51.758;5.784;2023-06-19T09:42:33;101225.63;;;24.15;51.17
80627;BME280;69982;51.758;5.784;2023-06-19T09:45:04;101240.09;;;24.29;50.68
80627;BME280;69982;51.758;5.784;2023-06-19T09:47:36;101239.48;;;24.37;51.02
80627;BME280;69982;51.758;5.784;2023-06-19T09:50:04;101246.59;;;24.49;51.17
80627;BME280;69982;51.758;5.784;2023-06-19T09:52:30;101250.09;;;24.55;49.65
80627;BME280;69982;51.758;5.784;2023-06-19T09:54:57;101243.01;;;24.62;49.59
80627;BME280;69982;51.758;5.784;2023-06-19T09:57:26;101243.88;;;24.73;49.63
80627;BME280;69982;51.758;5.784;2023-06-19T09:59:55;101241.60;;;24.89;49.54
80627;BME280;69982;51.758;5.784;2023-06-19T10:02:36;101244.18;;;25.01;48.60
80627;BME280;69982;51.758;5.784;2023-06-19T10:05:03;101251.95;;;25.07;48.13
80627;BME280;69982;51.758;5.784;2023-06-19T10:07:33;101248.21;;;25.13;47.85
80627;BME280;69982;51.758;5.784;2023-06-19T10:10:06;101251.84;;;25.24;47.69
80627;BME280;69982;51.758;5.784;2023-06-19T10:15:17;101249.80;;;25.36;47.64
80627;BME280;69982;51.758;5.784;2023-06-19T10:18:04;101254.68;;;25.42;46.99
80627;BME280;69982;51.758;5.784;2023-06-19T10:20:34;101250.45;;;25.52;46.71
80627;BME280;69982;51.758;5.784;2023-06-19T10:23:09;101243.84;;;25.63;46.89
80627;BME280;69982;51.758;5.784;2023-06-19T10:25:38;101253.34;;;25.72;46.19
80627;BME280;69982;51.758;5.784;2023-06-19T10:28:20;101248.57;;;25.77;46.77
80627;BME280;69982;51.758;5.784;2023-06-19T10:33:23;101248.73;;;25.82;45.84
80627;BME280;69982;51.758;5.784;2023-06-19T10:35:51;101251.91;;;25.86;45.66
80627;BME280;69982;51.758;5.784;2023-06-19T10:38:18;101254.86;;;25.90;45.20
80627;BME280;69982;51.758;5.784;2023-06-19T10:40:45;101247.77;;;25.92;45.17
80627;BME280;69982;51.758;5.784;2023-06-19T10:43:19;101252.96;;;25.99;45.28
80627;BME280;69982;51.758;5.784;2023-06-19T10:45:45;101250.79;;;26.03;45.56
80627;BME280;69982;51.758;5.784;2023-06-19T10:48:19;101254.69;;;26.09;45.18
80627;BME280;69982;51.758;5.784;2023-06-19T10:50:47;101255.17;;;26.12;44.28
80627;BME280;69982;51.758;5.784;2023-06-19T10:53:46;101254.13;;;26.13;44.31
80627;BME280;69982;51.758;5.784;2023-06-19T10:56:12;101255.91;;;26.18;44.22
80627;BME280;69982;51.758;5.784;2023-06-19T10:58:39;101254.48;;;26.20;43.97
80627;BME280;69982;51.758;5.784;2023-06-19T11:01:05;101258.38;;;26.23;44.23
80627;BME280;69982;51.758;5.784;2023-06-19T11:03:31;101249.17;;;26.27;44.24
80627;BME280;69982;51.758;5.784;2023-06-19T11:05:58;101246.20;;;26.36;44.17
80627;BME280;69982;51.758;5.784;2023-06-19T11:08:24;101245.57;;;26.50;43.86
80627;BME280;69982;51.758;5.784;2023-06-19T11:10:52;101250.33;;;26.58;43.34
80627;BME280;69982;51.758;5.784;2023-06-19T11:13:19;101245.45;;;26.64;43.22
80627;BME280;69982;51.758;5.784;2023-06-19T11:15:48;101244.70;;;26.69;42.40
80627;BME280;69982;51.758;5.784;2023-06-19T11:18:18;101249.41;;;26.71;42.38
80627;BME280;69982;51.758;5.784;2023-06-19T11:20:45;101245.76;;;26.73;42.14
80627;BME280;69982;51.758;5.784;2023-06-19T11:23:13;101246.38;;;26.74;42.34
80627;BME280;69982;51.758;5.784;2023-06-19T11:25:41;101245.95;;;26.75;42.15
80627;BME280;69982;51.758;5.784;2023-06-19T11:28:13;101245.48;;;26.78;41.96
80627;BME280;69982;51.758;5.784;2023-06-19T11:30:44;101242.98;;;26.79;41.44
80627;BME280;69982;51.758;5.784;2023-06-19T11:33:18;101244.07;;;26.83;41.25
80627;BME280;69982;51.758;5.784;2023-06-19T11:35:53;101239.27;;;26.89;41.58
80627;BME280;69982;51.758;5.784;2023-06-19T11:38:21;101240.83;;;26.97;41.97
80627;BME280;69982;51.758;5.784;2023-06-19T11:40:48;101237.80;;;27.01;41.29
80627;BME280;69982;51.758;5.784;2023-06-19T11:43:25;101238.94;;;27.04;41.42
80627;BME280;69982;51.758;5.784;2023-06-19T11:45:52;101233.38;;;27.07;40.62
80627;BME280;69982;51.758;5.784;2023-06-19T11:48:25;101241.77;;;27.17;39.84
80627;BME280;69982;51.758;5.784;2023-06-19T11:50:53;101238.59;;;27.23;40.14
80627;BME280;69982;51.758;5.784;2023-06-19T11:53:21;101235.52;;;27.28;41.56
80627;BME280;69982;51.758;5.784;2023-06-19T11:55:48;101231.86;;;27.39;42.04
80627;BME280;69982;51.758;5.784;2023-06-19T11:58:15;101227.70;;;27.51;41.29
80627;BME280;69982;51.758;5.784;2023-06-19T12:00:42;101220.88;;;27.58;40.08
80627;BME280;69982;51.758;5.784;2023-06-19T12:03:09;101221.92;;;27.62;39.46
80627;BME280;69982;51.758;5.784;2023-06-19T12:05:37;101224.31;;;27.68;38.24
80627;BME280;69982;51.758;5.784;2023-06-19T12:08:04;101226.20;;;27.77;37.91
80627;BME280;69982;51.758;5.784;2023-06-19T12:10:31;101226.13;;;27.86;36.67
80627;BME280;69982;51.758;5.784;2023-06-19T12:12:58;101227.39;;;27.92;37.43
80627;BME280;69982;51.758;5.784;2023-06-19T12:15:24;101228.71;;;28.02;37.62
80627;BME280;69982;51.758;5.784;2023-06-19T12:17:51;101228.85;;;28.07;37.58
80627;BME280;69982;51.758;5.784;2023-06-19T12:20:18;101224.25;;;28.17;37.03
80627;BME280;69982;51.758;5.784;2023-06-19T12:22:45;101221.30;;;28.19;36.56
80627;BME280;69982;51.758;5.784;2023-06-19T12:25:12;101215.05;;;28.25;36.96
80627;BME280;69982;51.758;5.784;2023-06-19T12:27:38;101218.03;;;28.37;37.54
80627;BME280;69982;51.758;5.784;2023-06-19T12:30:05;101214.33;;;28.52;37.11
80627;BME280;69982;51.758;5.784;2023-06-19T12:32:32;101218.15;;;28.68;36.94
80627;BME280;69982;51.758;5.784;2023-06-19T12:34:58;101219.02;;;28.84;36.55
80627;BME280;69982;51.758;5.784;2023-06-19T12:37:25;101222.34;;;28.92;36.05
80627;BME280;69982;51.758;5.784;2023-06-19T12:39:51;101227.44;;;29.02;35.76
80627;BME280;69982;51.758;5.784;2023-06-19T12:42:17;101232.30;;;29.11;35.63
80627;BME280;69982;51.758;5.784;2023-06-19T12:44:44;101238.27;;;29.18;35.63
80627;BME280;69982;51.758;5.784;2023-06-19T12:47:15;101240.02;;;29.26;35.47
80627;BME280;69982;51.758;5.784;2023-06-19T12:49:43;101239.05;;;29.36;35.36
80627;BME280;69982;51.758;5.784;2023-06-19T12:52:11;101234.70;;;29.49;35.47
80627;BME280;69982;51.758;5.784;2023-06-19T12:54:37;101225.83;;;29.59;35.12
80627;BME280;69982;51.758;5.784;2023-06-19T12:57:04;101229.85;;;29.67;34.44
80627;BME280;69982;51.758;5.784;2023-06-19T12:59:31;101228.14;;;29.72;34.34